createdAt,value
2018-07-27T00:00:23.846Z,43.03
2018-07-27T00:02:52.373Z,43.17
2018-07-27T00:05:21.014Z,43.58
2018-07-27T00:07:51.031Z,43.59
2018-07-27T00:10:19.905Z,43.78
2018-07-27T00:12:48.457Z,43.55
2018-07-27T00:15:17.000Z,43.73
2018-07-27T00:17:45.859Z,43.71
2018-07-27T00:20:14.381Z,43.73
2018-07-27T00:22:42.892Z,43.86
2018-07-27T00:25:11.453Z,44.29
2018-07-27T00:27:39.967Z,44.18
2018-07-27T00:30:08.629Z,43.78
2018-07-27T00:32:37.106Z,43.01
2018-07-27T00:35:06.035Z,43.12
2018-07-27T00:37:34.607Z,42.78
2018-07-27T00:40:03.123Z,43.81
2018-07-27T00:42:31.760Z,44.32
2018-07-27T00:45:00.289Z,46.00
2018-07-27T00:47:28.788Z,45.34
2018-07-27T00:49:57.313Z,44.22
2018-07-27T00:52:25.871Z,44.02
2018-07-27T00:54:54.479Z,44.94
2018-07-27T00:57:23.037Z,44.22
2018-07-27T00:59:51.523Z,44.46
2018-07-27T01:02:20.076Z,45.07
2018-07-27T01:04:48.893Z,46.15
2018-07-27T01:07:17.423Z,45.88
2018-07-27T01:09:46.113Z,45.31
2018-07-27T01:12:14.646Z,45.03
2018-07-27T01:14:43.140Z,44.77
2018-07-27T01:17:11.701Z,44.76
2018-07-27T01:19:40.240Z,45.44
2018-07-27T01:22:08.882Z,45.85
2018-07-27T01:24:37.388Z,45.51
2018-07-27T01:27:06.056Z,46.77
2018-07-27T01:29:34.628Z,46.29
2018-07-27T01:32:03.109Z,46.45
2018-07-27T01:34:31.642Z,47.06
2018-07-27T01:37:00.169Z,46.34
2018-07-27T01:39:28.673Z,46.85
2018-07-27T01:41:57.190Z,46.58
2018-07-27T01:44:25.738Z,46.41
2018-07-27T01:46:54.294Z,45.96
2018-07-27T01:49:22.756Z,46.32
2018-07-27T01:51:51.306Z,46.46
2018-07-27T01:54:20.073Z,47.03
2018-07-27T01:56:48.602Z,47.36
2018-07-27T01:59:17.272Z,47.16
2018-07-27T02:01:45.789Z,46.89
2018-07-27T02:04:14.244Z,47.77
2018-07-27T02:06:42.762Z,47.19
2018-07-27T02:09:11.317Z,47.21
2018-07-27T02:11:39.810Z,47.02
2018-07-27T02:14:08.339Z,47.96
2018-07-27T02:16:37.277Z,47.96
2018-07-27T02:19:05.906Z,47.63
2018-07-27T02:21:34.504Z,48.24
2018-07-27T02:24:03.010Z,48.71
2018-07-27T02:26:31.564Z,48.50
2018-07-27T02:29:00.093Z,48.26
2018-07-27T02:31:28.683Z,48.17
2018-07-27T02:33:57.237Z,48.35
2018-07-27T02:36:25.733Z,48.81
2018-07-27T02:38:54.252Z,48.80
2018-07-27T02:41:22.767Z,49.12
2018-07-27T02:43:51.475Z,49.85
2018-07-27T02:46:20.615Z,48.68
2018-07-27T02:48:49.164Z,48.85
2018-07-27T02:51:17.724Z,49.40
2018-07-27T02:53:46.262Z,49.75
2018-07-27T02:56:14.800Z,48.98
2018-07-27T02:58:43.263Z,49.22
2018-07-27T03:01:12.136Z,49.23
2018-07-27T03:03:40.619Z,50.32
2018-07-27T03:06:09.098Z,50.18
2018-07-27T03:08:37.621Z,50.63
2018-07-27T03:11:06.156Z,49.58
2018-07-27T03:13:34.723Z,49.72
2018-07-27T03:16:03.259Z,50.17
2018-07-27T03:18:31.752Z,50.94
2018-07-27T03:21:00.269Z,50.69
2018-07-27T03:23:28.973Z,50.28
2018-07-27T03:25:57.559Z,50.42
2018-07-27T03:28:26.146Z,50.40
2018-07-27T03:30:54.879Z,50.77
2018-07-27T03:33:23.375Z,51.38
2018-07-27T03:35:51.913Z,50.80
2018-07-27T03:38:20.555Z,51.50
2018-07-27T03:40:49.102Z,50.89
2018-07-27T03:43:17.594Z,51.19
2018-07-27T03:45:46.130Z,51.31
2018-07-27T03:48:14.642Z,51.22
2018-07-27T03:50:43.224Z,51.95
2018-07-27T03:53:11.739Z,51.76
2018-07-27T03:55:40.291Z,52.01
2018-07-27T03:58:08.879Z,52.51
2018-07-27T04:00:37.478Z,52.05
2018-07-27T04:03:06.231Z,52.44
2018-07-27T04:05:34.771Z,52.41
2018-07-27T04:08:03.258Z,52.88
2018-07-27T04:10:31.852Z,52.17
2018-07-27T04:13:00.443Z,52.84
2018-07-27T04:15:28.966Z,53.36
2018-07-27T04:18:01.024Z,52.29
2018-07-27T04:22:51.631Z,51.81
2018-07-27T04:25:20.550Z,52.32
2018-07-27T04:27:49.346Z,52.05
2018-07-27T04:30:18.143Z,52.11
2018-07-27T04:32:46.664Z,51.17
2018-07-27T04:35:15.562Z,51.42
2018-07-27T04:37:44.103Z,50.99
2018-07-27T04:40:12.639Z,51.69
2018-07-27T04:42:41.238Z,51.33
2018-07-27T04:45:09.901Z,51.34
2018-07-27T04:47:38.597Z,51.06
2018-07-27T04:50:07.947Z,50.76
2018-07-27T04:52:36.477Z,51.25
2018-07-27T04:55:05.043Z,51.38
2018-07-27T04:57:33.635Z,51.31
2018-07-27T05:00:02.297Z,50.89
2018-07-27T05:02:31.022Z,50.41
2018-07-27T05:04:59.481Z,50.88
2018-07-27T05:07:28.000Z,49.94
2018-07-27T05:09:56.485Z,50.00
2018-07-27T05:12:24.977Z,49.54
2018-07-27T05:14:53.481Z,50.45
2018-07-27T05:17:22.013Z,50.18
2018-07-27T05:19:50.534Z,49.58
2018-07-27T05:22:19.172Z,48.41
2018-07-27T05:24:47.796Z,45.86
2018-07-27T05:27:16.318Z,43.03
2018-07-27T05:29:44.780Z,42.47
2018-07-27T05:32:13.304Z,44.58
2018-07-27T05:34:41.839Z,45.43
2018-07-27T05:37:10.347Z,40.56
2018-07-27T05:39:38.828Z,40.83
2018-07-27T05:42:07.457Z,40.57
2018-07-27T05:44:35.964Z,41.40
2018-07-27T05:47:04.582Z,40.45
2018-07-27T05:49:33.052Z,40.94
2018-07-27T05:52:01.581Z,44.05
2018-07-27T05:54:30.061Z,40.54
2018-07-27T05:56:58.700Z,42.80
2018-07-27T05:59:27.257Z,41.61
2018-07-27T06:01:55.721Z,40.80
2018-07-27T06:04:24.200Z,39.85
2018-07-27T06:06:52.793Z,39.58
2018-07-27T06:09:21.268Z,39.09
2018-07-27T06:11:49.777Z,39.39
2018-07-27T06:14:18.384Z,39.20
2018-07-27T06:16:46.903Z,38.33
2018-07-27T06:19:15.382Z,38.90
2018-07-27T06:21:44.009Z,40.41
2018-07-27T06:24:12.497Z,38.44
2018-07-27T06:26:40.974Z,40.81
2018-07-27T06:29:09.473Z,39.05
2018-07-27T06:31:37.963Z,37.67
2018-07-27T06:34:06.518Z,40.33
2018-07-27T06:36:34.985Z,37.84
2018-07-27T06:39:03.744Z,36.87
2018-07-27T06:41:32.232Z,38.59
2018-07-27T06:44:00.719Z,39.34
2018-07-27T06:46:29.224Z,37.37
2018-07-27T06:48:57.701Z,37.46
2018-07-27T06:51:26.202Z,34.63
2018-07-27T06:53:54.721Z,37.90
2018-07-27T06:56:23.271Z,37.90
2018-07-27T06:58:51.781Z,35.80
2018-07-27T07:01:20.297Z,37.17
2018-07-27T07:03:49.120Z,37.83
2018-07-27T07:06:17.621Z,36.48
2018-07-27T07:08:46.318Z,36.92
2018-07-27T07:11:14.777Z,38.04
2018-07-27T07:13:43.282Z,38.23
2018-07-27T07:16:12.245Z,38.07
2018-07-27T07:18:40.716Z,38.52
2018-07-27T07:21:09.180Z,39.52
2018-07-27T07:23:37.673Z,38.21
2018-07-27T07:26:06.502Z,38.99
2018-07-27T07:28:34.756Z,39.28
2018-07-27T07:31:03.250Z,38.52
2018-07-27T07:33:31.761Z,38.42
2018-07-27T07:36:00.321Z,38.37
2018-07-27T07:38:28.938Z,38.23
2018-07-27T07:40:57.417Z,38.40
2018-07-27T07:43:26.000Z,38.15
2018-07-27T07:45:54.485Z,39.74
2018-07-27T07:48:23.242Z,38.15
2018-07-27T07:50:51.764Z,36.48
2018-07-27T07:53:20.284Z,36.26
2018-07-27T07:55:49.401Z,37.11
2018-07-27T07:58:17.861Z,36.77
2018-07-27T08:00:46.836Z,38.32
2018-07-27T08:03:15.706Z,36.64
2018-07-27T08:05:44.249Z,36.49
2018-07-27T08:08:12.709Z,36.03
2018-07-27T08:10:41.213Z,35.71
2018-07-27T08:13:09.657Z,34.50
2018-07-27T08:15:38.253Z,34.69
2018-07-27T08:18:06.708Z,34.63
2018-07-27T08:20:35.205Z,34.93
2018-07-27T08:23:03.697Z,34.02
2018-07-27T08:26:43.313Z,33.69
2018-07-27T08:29:13.910Z,34.31
2018-07-27T08:31:43.446Z,34.45
2018-07-27T08:34:12.912Z,34.81
2018-07-27T08:36:41.393Z,34.56
2018-07-27T08:39:11.167Z,32.96
2018-07-27T08:41:40.304Z,33.51
2018-07-27T08:44:09.805Z,33.53
2018-07-27T08:46:39.168Z,33.28
2018-07-27T08:49:07.932Z,34.68
2018-07-27T08:51:36.420Z,33.00
2018-07-27T08:54:04.950Z,33.31
2018-07-27T08:56:33.469Z,33.22
2018-07-27T08:59:02.169Z,33.05
2018-07-27T09:01:30.811Z,33.58
2018-07-27T09:03:59.354Z,33.02
2018-07-27T09:06:27.883Z,33.16
2018-07-27T09:08:56.487Z,33.43
2018-07-27T09:11:25.254Z,34.28
2018-07-27T09:13:54.577Z,33.94
2018-07-27T09:16:23.224Z,34.00
2018-07-27T09:18:52.275Z,33.30
2018-07-27T09:21:20.808Z,33.69
2018-07-27T09:23:49.337Z,33.46
2018-07-27T09:26:17.921Z,33.45
2018-07-27T09:28:46.437Z,34.19
2018-07-27T09:31:14.904Z,33.75
2018-07-27T09:33:43.410Z,33.14
2018-07-27T09:36:11.954Z,33.27
2018-07-27T09:38:40.440Z,33.23
2018-07-27T09:41:09.005Z,32.89
2018-07-27T09:43:37.597Z,32.71
2018-07-27T09:46:06.881Z,32.88
2018-07-27T09:48:35.356Z,32.89
2018-07-27T09:51:03.921Z,32.65
2018-07-27T09:53:32.456Z,32.37
2018-07-27T09:56:01.073Z,32.69
2018-07-27T09:58:29.623Z,32.31
2018-07-27T10:01:03.334Z,31.69
2018-07-27T10:03:32.364Z,32.13
2018-07-27T10:06:00.829Z,30.85
2018-07-27T10:08:29.333Z,32.09
2018-07-27T10:10:57.868Z,32.12
2018-07-27T10:13:26.360Z,31.55
2018-07-27T10:15:55.308Z,31.05
2018-07-27T10:18:24.257Z,31.24
2018-07-27T10:20:52.710Z,30.46
2018-07-27T10:23:21.277Z,31.42
2018-07-27T10:25:49.885Z,31.28
2018-07-27T10:28:18.362Z,31.37
2018-07-27T10:30:46.845Z,31.26
2018-07-27T10:33:15.365Z,31.33
2018-07-27T10:35:43.911Z,29.90
2018-07-27T10:38:12.416Z,30.94
2018-07-27T10:40:40.941Z,31.04
2018-07-27T10:43:09.509Z,31.15
2018-07-27T10:45:38.005Z,30.75
2018-07-27T10:48:06.518Z,30.42
2018-07-27T10:50:35.036Z,30.51
2018-07-27T10:53:03.521Z,30.79
2018-07-27T10:55:31.991Z,30.68
2018-07-27T10:58:00.476Z,31.05
2018-07-27T11:00:29.059Z,30.20
2018-07-27T11:02:57.530Z,29.77
2018-07-27T11:05:26.033Z,31.52
2018-07-27T11:07:54.522Z,30.05
2018-07-27T11:10:23.061Z,30.18
2018-07-27T11:12:51.658Z,30.51
2018-07-27T11:15:20.227Z,30.74
2018-07-27T11:17:48.771Z,29.98
2018-07-27T11:20:17.232Z,29.23
2018-07-27T11:22:45.717Z,29.55
2018-07-27T11:25:14.238Z,29.54
2018-07-27T11:27:42.785Z,28.73
2018-07-27T11:30:11.278Z,28.80
2018-07-27T11:32:39.820Z,28.86
2018-07-27T11:35:08.299Z,29.54
2018-07-27T11:37:36.760Z,29.76
2018-07-27T11:40:06.293Z,28.77
2018-07-27T11:42:34.842Z,28.57
2018-07-27T11:45:03.712Z,28.31
2018-07-27T11:47:32.218Z,28.59
2018-07-27T11:50:00.709Z,29.72
2018-07-27T11:52:29.250Z,28.99
2018-07-27T11:54:57.718Z,27.86
2018-07-27T11:57:26.389Z,27.98
2018-07-27T11:59:54.832Z,28.06
2018-07-27T12:02:23.697Z,27.58
2018-07-27T12:04:52.318Z,27.58
2018-07-27T12:07:20.832Z,28.51
2018-07-27T12:09:49.381Z,28.39
2018-07-27T12:12:17.956Z,28.70
2018-07-27T12:14:46.562Z,28.08
2018-07-27T12:17:15.338Z,28.14
2018-07-27T12:19:43.821Z,28.25
2018-07-27T12:22:12.441Z,27.82
2018-07-27T12:24:41.026Z,27.89
2018-07-27T12:27:09.572Z,27.64
2018-07-27T12:29:38.545Z,28.43
2018-07-27T12:32:07.218Z,28.21
2018-07-27T12:34:35.693Z,28.22
2018-07-27T12:37:04.500Z,27.50
2018-07-27T12:39:33.461Z,27.53
2018-07-27T12:42:01.963Z,27.45
2018-07-27T12:44:30.460Z,27.71
2018-07-27T12:46:59.040Z,27.95
2018-07-27T12:49:27.500Z,28.02
2018-07-27T12:51:56.247Z,27.96
2018-07-27T12:54:24.869Z,27.33
2018-07-27T12:56:53.870Z,27.05
2018-07-27T12:59:22.368Z,27.47
2018-07-27T13:01:50.821Z,27.20
2018-07-27T13:04:19.341Z,27.13
2018-07-27T13:06:47.849Z,27.86
2018-07-27T13:09:16.394Z,27.08
2018-07-27T13:11:44.922Z,27.36
2018-07-27T13:14:13.385Z,27.53
2018-07-27T13:16:41.930Z,27.59
2018-07-27T13:19:13.654Z,27.45
2018-07-27T13:21:42.217Z,25.79
2018-07-27T13:24:10.732Z,25.60
2018-07-27T13:26:39.234Z,27.02
2018-07-27T13:29:07.798Z,25.80
2018-07-27T13:31:58.245Z,25.84
2018-07-27T13:34:44.638Z,26.68
2018-07-27T13:37:13.547Z,25.64
2018-07-27T13:39:42.731Z,25.27
2018-07-27T13:42:12.518Z,25.97
2018-07-27T13:44:44.665Z,25.05
2018-07-27T13:47:13.584Z,25.14
2018-07-27T13:49:42.141Z,25.31
2018-07-27T13:52:10.674Z,25.81
2018-07-27T13:54:39.178Z,26.12
2018-07-27T13:57:08.676Z,25.81
2018-07-27T13:59:37.302Z,25.63
2018-07-27T14:02:05.993Z,25.85
2018-07-27T14:04:34.463Z,26.00
2018-07-27T14:07:03.958Z,24.99
2018-07-27T14:09:32.471Z,24.90
2018-07-27T14:12:01.054Z,25.07
2018-07-27T14:14:29.566Z,24.64
2018-07-27T14:16:58.112Z,24.79
2018-07-27T14:19:27.733Z,25.29
2018-07-27T14:21:56.300Z,24.18
2018-07-27T14:24:24.837Z,24.27
2018-07-27T14:26:53.424Z,24.85
2018-07-27T14:29:22.115Z,24.97
2018-07-27T14:31:50.741Z,25.80
2018-07-27T14:34:19.300Z,26.03
2018-07-27T14:36:47.805Z,24.99
2018-07-27T14:39:16.839Z,25.41
2018-07-27T14:41:45.506Z,25.18
2018-07-27T14:44:14.081Z,25.30
2018-07-27T14:46:42.565Z,25.30
2018-07-27T14:49:12.353Z,25.24
2018-07-27T14:51:41.443Z,25.49
2018-07-27T14:54:11.277Z,25.55
2018-07-27T14:56:40.380Z,24.64
2018-07-27T14:59:09.397Z,24.45
2018-07-27T15:01:38.324Z,23.99
2018-07-27T15:04:07.512Z,23.79
2018-07-27T15:06:36.032Z,24.55
2018-07-27T15:09:06.987Z,24.64
2018-07-27T15:11:35.506Z,24.54
2018-07-27T15:14:04.045Z,23.87
2018-07-27T15:16:32.561Z,23.98
2018-07-27T15:19:01.081Z,23.56
2018-07-27T15:21:29.585Z,23.62
2018-07-27T15:23:58.029Z,23.55
2018-07-27T15:26:26.773Z,23.81
2018-07-27T15:28:55.242Z,23.20
2018-07-27T15:31:23.800Z,23.43
2018-07-27T15:33:52.305Z,23.34
2018-07-27T15:36:20.796Z,23.19
2018-07-27T15:38:49.320Z,23.14
2018-07-27T15:41:17.808Z,22.96
2018-07-27T15:43:46.352Z,23.15
2018-07-27T15:46:14.877Z,23.15
2018-07-27T15:48:43.387Z,22.97
2018-07-27T15:51:12.000Z,22.71
2018-07-27T15:53:40.508Z,22.92
2018-07-27T15:56:09.013Z,23.08
2018-07-27T15:58:37.513Z,22.78
2018-07-27T16:01:06.161Z,22.59
2018-07-27T16:03:41.409Z,22.37
2018-07-27T16:06:09.976Z,23.00
2018-07-27T16:08:38.430Z,22.62
2018-07-27T16:11:07.097Z,22.98
2018-07-27T16:13:35.637Z,22.57
2018-07-27T16:16:04.185Z,23.09
2018-07-27T16:18:32.686Z,22.30
2018-07-27T16:21:01.248Z,22.65
2018-07-27T16:23:29.737Z,22.48
2018-07-27T16:25:58.240Z,22.50
2018-07-27T16:28:26.732Z,22.66
2018-07-27T16:30:55.192Z,22.59
2018-07-27T16:33:23.772Z,22.13
2018-07-27T16:35:52.285Z,22.59
2018-07-27T16:38:20.821Z,22.79
2018-07-27T16:40:49.740Z,22.73
2018-07-27T16:43:19.147Z,23.24
2018-07-27T16:45:47.801Z,22.98
2018-07-27T16:48:16.357Z,22.97
2018-07-27T16:50:44.918Z,23.76
2018-07-27T16:53:13.602Z,23.98
2018-07-27T16:55:42.056Z,24.07
2018-07-27T16:58:10.566Z,23.71
2018-07-27T17:00:39.072Z,23.62
2018-07-27T17:03:07.573Z,23.09
2018-07-27T17:05:36.146Z,23.38
2018-07-27T17:08:04.927Z,23.67
2018-07-27T17:10:33.424Z,24.07
2018-07-27T17:13:01.928Z,23.68
2018-07-27T17:15:30.483Z,24.02
2018-07-27T17:17:58.928Z,23.95
2018-07-27T17:20:27.392Z,24.46
2018-07-27T17:22:56.049Z,24.60
2018-07-27T17:25:24.615Z,24.68
2018-07-27T17:27:53.208Z,24.84
2018-07-27T17:30:21.716Z,24.24
2018-07-27T17:32:50.303Z,24.94
2018-07-27T17:35:18.774Z,24.66
2018-07-27T17:37:47.979Z,24.58
2018-07-27T17:40:16.610Z,24.54
2018-07-27T17:42:45.139Z,24.20
2018-07-27T17:45:13.650Z,24.54
2018-07-27T17:47:42.253Z,24.34
2018-07-27T17:50:10.748Z,24.66
2018-07-27T17:52:39.250Z,24.96
2018-07-27T17:55:07.793Z,25.39
2018-07-27T17:57:36.388Z,24.94
2018-07-27T18:00:05.788Z,25.08
2018-07-27T18:02:34.327Z,24.94
2018-07-27T18:05:02.834Z,24.56
2018-07-27T18:07:32.007Z,25.05
2018-07-27T18:10:01.103Z,24.38
2018-07-27T18:12:29.699Z,24.21
2018-07-27T18:14:58.206Z,24.26
2018-07-27T18:17:26.817Z,24.52
2018-07-27T18:19:55.333Z,24.65
2018-07-27T18:22:23.842Z,24.77
2018-07-27T18:24:52.727Z,24.84
2018-07-27T18:27:21.200Z,25.22
2018-07-27T18:29:49.884Z,25.78
2018-07-27T18:32:18.403Z,26.39
2018-07-27T18:34:46.970Z,25.71
2018-07-27T18:37:15.497Z,26.08
2018-07-27T18:39:44.060Z,26.31
2018-07-27T18:42:12.521Z,26.25
2018-07-27T18:44:41.054Z,26.00
2018-07-27T18:47:09.537Z,26.16
2018-07-27T18:49:38.557Z,26.67
2018-07-27T18:52:07.073Z,26.50
2018-07-27T18:54:35.604Z,26.52
2018-07-27T18:57:04.090Z,26.85
2018-07-27T18:59:33.160Z,26.70
2018-07-27T19:02:01.685Z,26.97
2018-07-27T19:04:30.177Z,27.03
2018-07-27T19:06:58.673Z,27.08
2018-07-27T19:09:27.207Z,27.53
2018-07-27T19:11:55.763Z,26.95
2018-07-27T19:14:24.242Z,27.14
2018-07-27T19:16:52.865Z,27.33
2018-07-27T19:19:21.383Z,27.50
2018-07-27T19:21:49.901Z,27.55
2018-07-27T19:24:18.497Z,28.31
2018-07-27T19:26:46.974Z,27.98
2018-07-27T19:29:16.044Z,28.29
2018-07-27T19:31:45.409Z,29.03
2018-07-27T19:34:14.245Z,28.92
2018-07-27T19:36:42.724Z,28.93
2018-07-27T19:39:12.384Z,29.65
2018-07-27T19:41:41.453Z,29.72
2018-07-27T19:44:09.961Z,29.31
2018-07-27T19:46:38.577Z,29.93
2018-07-27T19:49:07.139Z,29.87
2018-07-27T19:51:35.746Z,30.23
2018-07-27T19:54:04.231Z,30.14
2018-07-27T19:56:33.124Z,30.23
2018-07-27T19:59:01.611Z,30.61
2018-07-27T20:01:30.082Z,30.71
2018-07-27T20:03:58.597Z,30.84
2018-07-27T20:06:27.266Z,31.40
2018-07-27T20:08:56.076Z,31.18
2018-07-27T20:11:24.677Z,31.33
2018-07-27T20:13:53.217Z,31.57
2018-07-27T20:16:22.344Z,31.90
2018-07-27T20:18:50.872Z,32.04
2018-07-27T20:21:19.417Z,32.72
2018-07-27T20:23:47.922Z,32.52
2018-07-27T20:26:16.446Z,33.06
2018-07-27T20:28:44.944Z,32.41
2018-07-27T20:31:13.425Z,33.56
2018-07-27T20:33:41.941Z,33.38
2018-07-27T20:36:10.484Z,34.02
2018-07-27T20:38:39.027Z,34.93
2018-07-27T20:41:08.201Z,35.42
2018-07-27T20:43:36.665Z,36.02
2018-07-27T20:46:05.149Z,36.30
2018-07-27T20:48:33.700Z,35.92
2018-07-27T20:51:02.170Z,35.15
2018-07-27T20:53:30.662Z,35.20
2018-07-27T20:55:59.182Z,36.23
2018-07-27T20:58:27.722Z,35.41
2018-07-27T21:00:56.244Z,35.67
2018-07-27T21:03:24.740Z,36.17
2018-07-27T21:05:53.252Z,36.64
2018-07-27T21:08:21.773Z,38.01
2018-07-27T21:10:50.224Z,37.75
2018-07-27T21:13:18.722Z,37.82
2018-07-27T21:15:47.314Z,37.40
2018-07-27T21:18:15.847Z,37.38
2018-07-27T21:20:44.345Z,37.01
2018-07-27T21:23:12.846Z,37.48
2018-07-27T21:25:41.353Z,38.24
2018-07-27T21:28:09.864Z,37.64
2018-07-27T21:30:38.437Z,37.95
2018-07-27T21:33:06.933Z,38.38
2018-07-27T21:35:35.418Z,38.73
2018-07-27T21:38:03.981Z,38.04
2018-07-27T21:40:32.525Z,37.83
2018-07-27T21:43:01.614Z,38.82
2018-07-27T21:45:30.096Z,38.54
2018-07-27T21:47:58.577Z,39.10
2018-07-27T21:50:27.087Z,38.21
2018-07-27T21:52:55.580Z,38.52
2018-07-27T21:55:24.110Z,38.95
2018-07-27T21:57:52.654Z,39.24
2018-07-27T22:00:21.176Z,38.22
2018-07-27T22:02:49.739Z,38.23
2018-07-27T22:05:18.280Z,39.66
2018-07-27T22:07:49.916Z,39.07
2018-07-27T22:10:18.492Z,39.66
2018-07-27T22:12:47.112Z,39.85
2018-07-27T22:15:19.830Z,39.21
2018-07-27T22:17:48.930Z,39.51
2018-07-27T22:20:17.425Z,39.83
2018-07-27T22:22:45.915Z,39.63
2018-07-27T22:25:14.442Z,39.45
2018-07-27T22:27:43.102Z,40.55
2018-07-27T22:30:12.442Z,40.13
2018-07-27T22:32:40.857Z,40.36
2018-07-27T22:35:09.377Z,40.66
2018-07-27T22:37:39.469Z,39.63
2018-07-27T22:40:09.326Z,40.30
2018-07-27T22:42:37.896Z,40.83
2018-07-27T22:45:07.437Z,40.84
2018-07-27T22:47:35.940Z,40.35
2018-07-27T22:50:04.845Z,40.62
2018-07-27T22:52:38.666Z,40.38
2018-07-27T22:55:09.064Z,41.32
2018-07-27T22:57:37.614Z,41.08
2018-07-27T23:00:07.809Z,41.47
2018-07-27T23:02:36.348Z,40.76
2018-07-27T23:05:05.309Z,40.36
2018-07-27T23:07:33.856Z,40.65
2018-07-27T23:10:02.438Z,40.64
2018-07-27T23:12:30.978Z,40.63
2018-07-27T23:14:59.582Z,40.85
2018-07-27T23:17:28.155Z,40.98
2018-07-27T23:19:56.744Z,40.85
2018-07-27T23:22:25.601Z,41.27
2018-07-27T23:24:54.187Z,40.91
2018-07-27T23:27:22.667Z,41.37
2018-07-27T23:29:51.217Z,41.48
2018-07-27T23:32:19.748Z,41.82
2018-07-27T23:34:48.228Z,42.28
2018-07-27T23:37:16.772Z,42.19
2018-07-27T23:39:45.261Z,42.84
2018-07-27T23:42:13.809Z,41.83
2018-07-27T23:44:42.301Z,41.75
2018-07-27T23:47:10.794Z,42.36
2018-07-27T23:49:39.302Z,42.24
2018-07-27T23:52:07.824Z,42.63
2018-07-27T23:54:36.308Z,43.16
2018-07-27T23:57:04.893Z,42.57
2018-07-27T23:59:33.360Z,41.62
